Time;durP1;ratioP1;P1;durP2;ratioP2;P2;SDS_P1;SDS_P2;PMS_P1;PMS_P2;Temp;Humidity;BMP_temperature;BMP_pressure;BME280_temperature;BME280_humidity;BME280_pressure;Samples;Min_cycle;Max_cycle;Signal;HPM_P1;HPM_P2
2021/05/21 00:01:16;;;;;;;2.17;0.70;;;13.90;63.90;;;;;;5094165;28;20026;-71
2021/05/21 00:03:44;;;;;;;1.67;0.60;;;13.80;64.00;;;;;;5113094;28;20069;-71
2021/05/21 00:06:10;;;;;;;1.30;0.60;;;13.80;64.10;;;;;;5112139;28;20044;-71
2021/05/21 00:08:35;;;;;;;1.48;0.77;;;13.80;64.20;;;;;;5094780;28;20027;-71
2021/05/21 00:11:02;;;;;;;0.60;0.50;;;13.80;64.40;;;;;;5112738;28;20486;-71
2021/05/21 00:13:27;;;;;;;0.93;0.50;;;13.80;64.50;;;;;;5094122;28;20019;-71
2021/05/21 00:15:53;;;;;;;0.75;0.60;;;13.70;64.60;;;;;;5094775;28;20444;-71
2021/05/21 00:18:19;;;;;;;0.82;0.43;;;13.70;64.50;;;;;;5094160;28;20027;-71
2021/05/21 00:20:44;;;;;;;0.60;0.57;;;13.70;64.70;;;;;;5094887;28;20467;-71
2021/05/21 00:23:10;;;;;;;0.98;0.60;;;13.70;64.90;;;;;;5112373;28;20369;-71
2021/05/21 00:25:36;;;;;;;1.00;0.55;;;13.70;64.90;;;;;;5112850;28;20028;-71
2021/05/21 00:28:05;;;;;;;1.27;0.60;;;13.60;64.90;;;;;;5094800;28;20058;-70
2021/05/21 00:30:30;;;;;;;1.02;0.52;;;13.60;65.10;;;;;;5094775;28;20055;-71
2021/05/21 00:32:56;;;;;;;0.77;0.60;;;13.60;65.00;;;;;;5094677;28;20119;-71
2021/05/21 00:35:21;;;;;;;1.15;0.65;;;13.60;65.30;;;;;;5112029;28;20468;-71
2021/05/21 00:37:47;;;;;;;1.38;0.80;;;13.60;65.70;;;;;;5112917;28;20030;-71
2021/05/21 00:40:13;;;;;;;1.10;0.70;;;13.60;65.20;;;;;;5093871;28;20028;-71
2021/05/21 00:42:39;;;;;;;1.35;0.70;;;13.60;65.30;;;;;;5094211;28;20028;-71
2021/05/21 00:45:05;;;;;;;0.95;0.60;;;13.60;65.20;;;;;;5094572;28;20020;-71
2021/05/21 00:47:31;;;;;;;2.63;0.85;;;13.60;65.40;;;;;;5112318;28;20035;-71
2021/05/21 00:49:57;;;;;;;1.05;0.50;;;13.60;65.70;;;;;;5112327;28;20514;-70
2021/05/21 00:52:26;;;;;;;0.98;0.40;;;13.60;65.60;;;;;;5093851;28;20024;-71
2021/05/21 00:54:52;;;;;;;1.98;0.50;;;13.60;65.60;;;;;;5112607;28;20027;-71
2021/05/21 00:57:17;;;;;;;1.20;0.82;;;13.50;65.60;;;;;;5112034;28;20027;-71
2021/05/21 00:59:44;;;;;;;1.08;0.57;;;13.50;65.60;;;;;;5094757;28;20023;-71
2021/05/21 01:02:10;;;;;;;2.80;0.50;;;13.50;66.00;;;;;;5093680;28;20024;-71
2021/05/21 01:04:36;;;;;;;1.90;0.55;;;13.50;66.20;;;;;;5112601;28;20031;-71
2021/05/21 01:07:04;;;;;;;0.85;0.47;;;13.50;66.20;;;;;;5094092;28;20137;-71
2021/05/21 01:09:30;;;;;;;0.95;0.50;;;13.50;66.50;;;;;;5093586;28;20114;-71
2021/05/21 01:11:55;;;;;;;1.75;0.82;;;13.50;66.50;;;;;;5093924;28;20153;-71
2021/05/21 01:14:21;;;;;;;0.57;0.55;;;13.40;66.60;;;;;;5114309;28;20028;-71
2021/05/21 01:16:47;;;;;;;1.10;0.60;;;13.40;67.00;;;;;;5116200;28;20027;-71
2021/05/21 01:19:12;;;;;;;1.35;0.65;;;13.40;67.30;;;;;;5097273;28;20024;-71
2021/05/21 01:21:38;;;;;;;1.65;0.57;;;13.40;67.40;;;;;;5116068;28;20019;-71
2021/05/21 01:24:06;;;;;;;1.52;0.65;;;13.30;67.60;;;;;;5097906;28;20069;-71
2021/05/21 01:26:32;;;;;;;1.58;0.60;;;13.30;67.70;;;;;;5097029;28;20058;-71
2021/05/21 01:28:58;;;;;;;3.03;0.60;;;13.30;67.80;;;;;;5097632;28;20051;-70
2021/05/21 01:31:24;;;;;;;1.10;0.70;;;13.40;67.80;;;;;;5097034;28;20027;-71
2021/05/21 01:33:50;;;;;;;0.52;0.40;;;13.30;67.80;;;;;;5097307;28;20023;-71
2021/05/21 01:36:17;;;;;;;0.80;0.47;;;13.30;67.90;;;;;;5115282;28;20031;-71
2021/05/21 01:39:09;;;;;;;1.50;0.60;;;13.30;67.80;;;;;;5115454;28;20441;-71
2021/05/21 01:41:36;;;;;;;1.20;0.73;;;13.30;68.30;;;;;;5097158;28;20019;-71
2021/05/21 01:44:04;;;;;;;1.13;0.60;;;13.20;68.40;;;;;;5097473;28;20023;-71
2021/05/21 01:46:30;;;;;;;1.00;0.50;;;13.30;68.50;;;;;;5114865;28;20187;-71
2021/05/21 01:48:55;;;;;;;1.17;0.60;;;13.30;68.40;;;;;;5097464;28;20020;-71
2021/05/21 01:51:21;;;;;;;1.48;0.40;;;13.30;68.50;;;;;;5096648;28;20042;-71
2021/05/21 01:53:46;;;;;;;0.98;0.70;;;13.30;68.60;;;;;;5115413;28;20019;-71
2021/05/21 01:56:12;;;;;;;1.08;0.60;;;13.20;69.00;;;;;;5096511;28;20475;-71
2021/05/21 01:58:38;;;;;;;1.35;0.70;;;13.10;70.40;;;;;;5097314;28;20441;-71
2021/05/21 02:01:03;;;;;;;0.75;0.47;;;13.00;70.90;;;;;;5097080;28;20444;-70
2021/05/21 02:03:30;;;;;;;0.70;0.45;;;13.00;71.60;;;;;;5114950;28;20015;-71
2021/05/21 02:05:57;;;;;;;1.25;0.70;;;13.00;70.90;;;;;;5114750;28;20054;-71
2021/05/21 02:08:24;;;;;;;0.40;0.40;;;13.00;70.60;;;;;;5114548;28;20024;-71
2021/05/21 02:10:50;;;;;;;2.70;0.63;;;12.90;71.00;;;;;;5096803;28;20016;-71
2021/05/21 02:13:17;;;;;;;1.80;0.50;;;12.80;71.40;;;;;;5114482;28;20019;-71
2021/05/21 02:15:42;;;;;;;1.40;0.70;;;12.80;71.60;;;;;;5115029;28;20023;-71
2021/05/21 02:18:08;;;;;;;0.70;0.60;;;12.80;71.70;;;;;;5096674;28;20020;-71
2021/05/21 02:20:34;;;;;;;1.80;0.70;;;12.80;71.60;;;;;;5114398;28;20019;-71
2021/05/21 02:23:00;;;;;;;0.85;0.60;;;12.70;71.70;;;;;;5096703;28;20028;-70
2021/05/21 02:25:26;;;;;;;0.93;0.70;;;12.70;72.40;;;;;;5114188;28;20444;-71
2021/05/21 02:27:51;;;;;;;1.65;0.70;;;12.70;72.80;;;;;;5114678;28;20057;-70
2021/05/21 02:30:17;;;;;;;2.17;0.75;;;12.70;72.80;;;;;;5095969;28;20077;-71
2021/05/21 02:32:43;;;;;;;0.88;0.63;;;12.60;73.40;;;;;;5096626;28;20019;-71
2021/05/21 02:35:10;;;;;;;1.08;0.60;;;12.50;74.00;;;;;;5114560;28;20024;-71
2021/05/21 02:37:36;;;;;;;1.48;0.75;;;12.50;74.30;;;;;;5114023;28;20031;-71
2021/05/21 02:40:05;;;;;;;1.38;0.70;;;12.40;74.60;;;;;;5095911;28;20030;-71
2021/05/21 02:42:30;;;;;;;1.10;0.60;;;12.40;74.70;;;;;;5095632;28;20019;-71
2021/05/21 02:44:56;;;;;;;1.20;0.70;;;12.30;74.80;;;;;;5096361;28;20042;-71
2021/05/21 02:47:21;;;;;;;1.92;0.77;;;12.50;73.60;;;;;;5113477;28;20055;-71
2021/05/21 02:49:47;;;;;;;1.63;0.70;;;12.60;73.00;;;;;;5096113;28;20471;-70
2021/05/21 02:52:13;;;;;;;1.05;0.65;;;12.60;72.70;;;;;;5095929;28;20023;-73
2021/05/21 02:54:39;;;;;;;2.90;0.90;;;12.60;72.80;;;;;;5095644;28;20019;-70
2021/05/21 02:57:05;;;;;;;2.35;0.73;;;12.50;73.00;;;;;;5095922;28;20028;-71
2021/05/21 02:59:30;;;;;;;0.95;0.73;;;12.60;73.30;;;;;;5113602;28;20012;-71
2021/05/21 03:01:56;;;;;;;0.85;0.60;;;12.60;73.20;;;;;;5095886;28;20055;-70
2021/05/21 03:04:22;;;;;;;1.00;0.75;;;12.50;73.50;;;;;;5094941;28;20019;-71
2021/05/21 03:06:47;;;;;;;1.55;0.60;;;12.50;73.60;;;;;;5113463;28;20051;-70
2021/05/21 03:09:13;;;;;;;0.85;0.57;;;12.40;73.60;;;;;;5114006;28;20027;-71
2021/05/21 03:11:38;;;;;;;1.13;0.65;;;12.40;73.80;;;;;;5095037;28;20027;-71
2021/05/21 03:14:04;;;;;;;1.98;0.73;;;12.40;73.90;;;;;;5114174;28;20440;-71
2021/05/21 03:16:30;;;;;;;0.73;0.55;;;12.30;74.50;;;;;;5113279;28;20024;-71
2021/05/21 03:18:56;;;;;;;1.58;0.73;;;12.20;75.20;;;;;;5095624;28;20023;-71
2021/05/21 03:21:22;;;;;;;1.67;0.73;;;12.10;75.80;;;;;;5094922;28;20020;-71
2021/05/21 03:23:48;;;;;;;1.80;0.70;;;12.00;76.60;;;;;;5113710;28;20027;-71
2021/05/21 03:26:13;;;;;;;1.92;0.70;;;11.90;77.00;;;;;;5113350;28;20418;-70
2021/05/21 03:28:40;;;;;;;0.93;0.70;;;11.90;77.10;;;;;;5094885;28;20027;-71
2021/05/21 03:31:08;;;;;;;3.10;0.60;;;11.90;76.90;;;;;;5113572;28;20011;-70
2021/05/21 03:33:33;;;;;;;1.33;0.80;;;11.80;77.60;;;;;;5112937;28;20467;-70
2021/05/21 03:35:59;;;;;;;2.72;0.93;;;11.80;78.20;;;;;;5094883;28;20046;-70
2021/05/21 03:38:27;;;;;;;2.15;0.77;;;11.70;78.20;;;;;;5112928;28;20031;-71
2021/05/21 03:40:53;;;;;;;1.52;0.50;;;11.60;78.60;;;;;;5095227;28;20409;-70
2021/05/21 03:43:18;;;;;;;0.75;0.60;;;11.60;78.40;;;;;;5112775;28;20107;-71
2021/05/21 03:45:44;;;;;;;1.00;0.73;;;11.60;77.90;;;;;;5113281;28;20428;-71
2021/05/21 03:48:12;;;;;;;2.15;0.60;;;11.70;78.30;;;;;;5095181;28;20436;-70
2021/05/21 03:50:38;;;;;;;1.08;0.65;;;11.70;78.60;;;;;;5094417;28;20077;-71
2021/05/21 03:53:03;;;;;;;0.70;0.68;;;11.80;76.90;;;;;;5095004;28;20468;-70
2021/05/21 03:55:29;;;;;;;0.73;0.60;;;11.90;76.50;;;;;;5112375;28;20346;-70
2021/05/21 03:57:56;;;;;;;0.60;0.60;;;11.90;76.00;;;;;;5113304;28;20024;-71
2021/05/21 04:00:22;;;;;;;0.70;0.50;;;11.90;76.00;;;;;;5094324;28;20073;-71
2021/05/21 04:02:50;;;;;;;1.85;0.55;;;11.90;75.60;;;;;;5113186;28;20023;-70
2021/05/21 04:05:17;;;;;;;1.75;0.70;;;12.00;75.20;;;;;;5112801;28;20023;-71
2021/05/21 04:07:43;;;;;;;1.13;0.50;;;12.10;74.80;;;;;;5094794;28;20034;-71
2021/05/21 04:10:10;;;;;;;1.98;0.50;;;12.20;74.40;;;;;;5113366;28;20047;-70
2021/05/21 04:12:36;;;;;;;1.13;0.60;;;12.30;74.10;;;;;;5112441;28;20058;-70
2021/05/21 04:15:02;;;;;;;1.40;0.70;;;12.30;73.90;;;;;;5113023;28;20024;-70
2021/05/21 04:17:27;;;;;;;0.60;0.50;;;12.30;73.70;;;;;;5112455;28;20394;-71
2021/05/21 04:19:53;;;;;;;0.80;0.60;;;12.30;73.60;;;;;;5094804;28;20020;-71
2021/05/21 04:22:19;;;;;;;1.25;0.50;;;12.40;73.70;;;;;;5094417;28;20026;-73
2021/05/21 04:24:44;;;;;;;1.10;0.60;;;12.40;73.60;;;;;;5112965;28;20023;-70
2021/05/21 04:27:10;;;;;;;2.17;0.60;;;12.30;73.70;;;;;;5112902;28;20035;-71
2021/05/21 04:29:36;;;;;;;0.93;0.50;;;12.40;73.90;;;;;;5112300;28;20462;-71
2021/05/21 04:32:03;;;;;;;1.15;0.60;;;12.40;73.80;;;;;;5112574;28;20024;-70
2021/05/21 04:34:29;;;;;;;0.88;0.40;;;12.40;73.70;;;;;;5094110;28;20027;-71
2021/05/21 04:36:56;;;;;;;1.17;0.60;;;12.30;74.20;;;;;;5112820;28;20031;-70
2021/05/21 04:39:21;;;;;;;1.73;0.60;;;12.30;74.70;;;;;;5112221;28;20031;-71
2021/05/21 04:41:47;;;;;;;0.70;0.60;;;12.30;75.70;;;;;;5112801;28;20042;-71
2021/05/21 04:44:12;;;;;;;1.60;0.57;;;12.30;75.90;;;;;;5094670;28;20020;-71
2021/05/21 04:46:39;;;;;;;1.85;0.70;;;12.30;76.30;;;;;;5112101;28;20024;-71
2021/05/21 04:49:04;;;;;;;1.45;0.75;;;12.30;76.50;;;;;;5096329;28;20030;-70
2021/05/21 04:51:30;;;;;;;1.13;0.77;;;12.30;77.10;;;;;;5116091;28;20379;-71
2021/05/21 04:53:58;;;;;;;2.35;0.82;;;12.30;77.00;;;;;;5098330;28;20015;-71
2021/05/21 04:56:24;;;;;;;0.82;0.70;;;12.40;77.50;;;;;;5097687;28;20020;-71
2021/05/21 04:58:49;;;;;;;2.75;0.57;;;12.40;76.00;;;;;;5098349;28;20471;-70
2021/05/21 05:01:15;;;;;;;0.60;0.60;;;12.50;73.80;;;;;;5098214;28;20449;-71
2021/05/21 05:03:40;;;;;;;2.05;0.55;;;12.50;73.50;;;;;;5115594;28;20194;-71
2021/05/21 05:06:06;;;;;;;0.80;0.70;;;12.60;73.00;;;;;;5116266;28;20052;-71
2021/05/21 05:08:32;;;;;;;1.08;0.70;;;12.60;72.90;;;;;;5115774;28;20020;-69
2021/05/21 05:10:57;;;;;;;2.60;0.68;;;12.70;72.40;;;;;;5098165;28;20029;-69
2021/05/21 05:13:23;;;;;;;1.02;0.52;;;12.70;72.50;;;;;;5097351;28;20383;-69
2021/05/21 05:15:48;;;;;;;3.28;0.85;;;12.80;72.30;;;;;;5116523;28;20028;-69
2021/05/21 05:18:14;;;;;;;2.38;0.60;;;12.80;71.70;;;;;;5116177;28;20061;-69
2021/05/21 05:20:41;;;;;;;2.05;0.77;;;12.90;71.30;;;;;;5097289;28;20020;-69
2021/05/21 05:23:11;;;;;;;1.55;0.80;;;13.00;70.50;;;;;;5116053;28;20019;-69
2021/05/21 05:25:43;;;;;;;1.88;0.55;;;13.00;70.00;;;;;;5097101;28;20031;-69
2021/05/21 05:28:09;;;;;;;4.00;0.70;;;13.10;70.10;;;;;;5097851;28;20476;-69
2021/05/21 05:30:35;;;;;;;1.75;0.60;;;13.20;69.60;;;;;;5096681;28;20024;-69
2021/05/21 05:33:01;;;;;;;0.82;0.50;;;13.20;69.20;;;;;;5097182;28;20139;-69
2021/05/21 05:35:26;;;;;;;4.75;0.40;;;13.20;69.20;;;;;;5096835;28;20080;-70
2021/05/21 05:37:52;;;;;;;1.33;0.50;;;13.30;68.80;;;;;;5097483;28;20482;-69
2021/05/21 05:40:18;;;;;;;1.85;0.50;;;13.40;68.60;;;;;;5097484;28;20031;-69
2021/05/21 05:42:43;;;;;;;0.55;0.35;;;13.40;67.30;;;;;;5114995;28;20138;-69
2021/05/21 05:45:10;;;;;;;0.93;0.50;;;13.50;67.60;;;;;;5097331;28;20097;-69
2021/05/21 05:47:35;;;;;;;2.75;0.43;;;13.50;67.30;;;;;;5114491;28;20024;-69
2021/05/21 05:50:02;;;;;;;0.77;0.30;;;13.60;67.60;;;;;;5097190;28;20056;-69
2021/05/21 05:52:28;;;;;;;1.58;0.40;;;13.60;66.60;;;;;;5114745;28;20099;-69
2021/05/21 05:54:53;;;;;;;0.80;0.43;;;13.70;66.70;;;;;;5097149;28;20425;-69
2021/05/21 05:57:19;;;;;;;1.88;0.55;;;13.80;66.50;;;;;;5097013;28;20085;-69
2021/05/21 05:59:45;;;;;;;1.30;0.40;;;13.80;65.90;;;;;;5096041;28;20059;-70
2021/05/21 06:02:10;;;;;;;0.85;0.40;;;13.90;66.30;;;;;;5096966;28;20024;-69
2021/05/21 06:04:36;;;;;;;2.05;0.65;;;14.00;65.90;;;;;;5096364;28;20024;-69
2021/05/21 06:07:02;;;;;;;0.40;0.30;;;14.00;65.90;;;;;;5115138;28;20414;-69
2021/05/21 06:09:28;;;;;;;1.27;0.52;;;14.10;65.50;;;;;;5114258;28;20454;-69
2021/05/21 06:11:57;;;;;;;1.02;0.50;;;14.10;65.40;;;;;;5096526;28;20024;-69
2021/05/21 06:14:23;;;;;;;3.10;0.57;;;14.20;64.40;;;;;;5096855;28;20024;-69
2021/05/21 06:16:48;;;;;;;2.45;0.50;;;14.20;64.10;;;;;;5096025;28;20534;-69
2021/05/21 06:19:14;;;;;;;2.78;0.70;;;14.30;63.40;;;;;;5114944;28;20020;-69
2021/05/21 06:21:40;;;;;;;2.60;0.93;;;14.40;62.90;;;;;;5114213;28;20134;-69
2021/05/21 06:24:06;;;;;;;4.43;0.60;;;14.40;62.80;;;;;;5096577;28;20460;-69
2021/05/21 06:26:43;;;;;;;1.27;0.50;;;14.50;62.90;;;;;;5095858;28;20126;-69
2021/05/21 06:29:08;;;;;;;2.10;0.40;;;14.60;62.10;;;;;;5114902;28;20027;-69
2021/05/21 06:31:34;;;;;;;0.88;0.20;;;14.70;61.80;;;;;;5095821;28;20024;-69
2021/05/21 06:33:59;;;;;;;0.95;0.20;;;14.70;61.00;;;;;;5096317;28;20465;-69
2021/05/21 06:36:25;;;;;;;1.30;0.35;;;14.80;60.80;;;;;;5114314;28;20039;-69
2021/05/21 06:38:51;;;;;;;0.80;0.35;;;14.80;60.70;;;;;;5095908;28;20118;-69
2021/05/21 06:41:17;;;;;;;0.55;0.38;;;14.90;60.50;;;;;;5096261;28;20028;-69
2021/05/21 06:43:43;;;;;;;4.00;0.40;;;14.90;61.20;;;;;;5095214;28;20024;-69
2021/05/21 06:46:08;;;;;;;1.63;0.50;;;14.90;60.70;;;;;;5114399;28;20034;-69
2021/05/21 06:48:35;;;;;;;3.85;0.52;;;15.00;60.00;;;;;;5113743;28;20034;-69
2021/05/21 06:51:07;;;;;;;0.60;0.30;;;15.00;60.00;;;;;;5096032;28;20027;-69
2021/05/21 06:53:33;;;;;;;7.35;0.52;;;15.10;59.40;;;;;;5095227;28;20100;-69
2021/05/21 06:56:00;;;;;;;1.48;0.57;;;15.10;59.00;;;;;;5113954;28;20045;-69
2021/05/21 06:58:26;;;;;;;2.67;0.50;;;15.20;59.60;;;;;;5113841;28;20030;-70
2021/05/21 07:00:54;;;;;;;4.00;0.40;;;15.20;59.40;;;;;;5113466;28;20084;-69
2021/05/21 07:03:20;;;;;;;2.03;0.40;;;15.30;59.10;;;;;;5114055;28;20023;-69
2021/05/21 07:05:46;;;;;;;1.05;0.30;;;15.30;59.10;;;;;;5094629;28;20050;-69
2021/05/21 07:08:14;;;;;;;4.22;0.50;;;15.30;59.10;;;;;;5095682;28;20144;-69
2021/05/21 07:10:39;;;;;;;2.42;0.30;;;15.40;59.00;;;;;;5094641;28;20030;-69
2021/05/21 07:13:14;;;;;;;0.82;0.30;;;15.40;59.30;;;;;;5095208;28;20024;-69
2021/05/21 07:15:40;;;;;;;3.03;0.90;;;15.40;59.20;;;;;;5094933;28;20101;-69
2021/05/21 07:18:06;;;;;;;0.60;0.32;;;15.40;59.70;;;;;;5113771;28;20020;-69
2021/05/21 07:20:33;;;;;;;1.30;0.47;;;15.30;59.70;;;;;;5112796;28;20028;-70
2021/05/21 07:22:59;;;;;;;4.50;1.83;;;15.40;59.70;;;;;;5113661;28;20059;-69
2021/05/21 07:25:25;;;;;;;2.70;0.50;;;15.40;59.90;;;;;;5095377;28;20469;-69
2021/05/21 07:27:51;;;;;;;2.60;0.60;;;15.40;59.90;;;;;;5112612;28;20376;-69
2021/05/21 07:30:17;;;;;;;1.88;0.60;;;15.40;59.70;;;;;;5113607;28;20023;-69
2021/05/21 07:32:43;;;;;;;1.98;0.60;;;15.40;60.00;;;;;;5112915;28;20460;-69
2021/05/21 07:35:09;;;;;;;1.95;0.50;;;15.40;59.50;;;;;;5113470;28;20049;-69
2021/05/21 07:37:35;;;;;;;1.95;0.45;;;15.40;59.30;;;;;;5094564;28;20050;-70
2021/05/21 07:40:03;;;;;;;1.20;0.47;;;15.50;59.00;;;;;;5113373;28;20452;-69
2021/05/21 07:42:28;;;;;;;1.63;0.40;;;15.50;58.80;;;;;;5113314;28;20030;-69
2021/05/21 07:44:54;;;;;;;0.98;0.35;;;15.60;58.80;;;;;;5094487;28;20118;-69
2021/05/21 07:47:20;;;;;;;0.55;0.30;;;15.60;59.00;;;;;;5112949;28;20111;-69
2021/05/21 07:49:46;;;;;;;1.20;0.30;;;15.60;58.80;;;;;;5094333;28;20108;-69
2021/05/21 07:52:12;;;;;;;0.77;0.20;;;15.60;58.80;;;;;;5095159;28;20035;-69
2021/05/21 07:54:37;;;;;;;0.98;0.50;;;15.60;58.70;;;;;;5094296;28;20031;-69
2021/05/21 07:57:03;;;;;;;1.35;0.32;;;15.60;58.50;;;;;;5094646;28;20050;-69
2021/05/21 07:59:29;;;;;;;2.38;0.30;;;15.60;58.60;;;;;;5094791;28;20058;-69
2021/05/21 08:01:54;;;;;;;2.05;0.45;;;15.60;58.90;;;;;;5094255;28;20023;-70
2021/05/21 08:04:20;;;;;;;0.95;0.35;;;15.70;58.90;;;;;;5094827;28;20547;-69
2021/05/21 08:06:46;;;;;;;0.88;0.20;;;15.70;58.80;;;;;;5112285;28;20056;-70
2021/05/21 08:09:11;;;;;;;0.45;0.30;;;15.80;59.20;;;;;;5094817;28;20384;-69
2021/05/21 08:11:37;;;;;;;1.48;0.30;;;15.90;59.40;;;;;;5094225;28;20034;-70
2021/05/21 08:14:04;;;;;;;0.90;0.30;;;15.90;59.50;;;;;;5113059;28;20028;-70
2021/05/21 08:16:30;;;;;;;1.77;0.38;;;15.90;59.50;;;;;;5112651;28;20435;-69
2021/05/21 08:18:59;;;;;;;0.98;0.40;;;15.90;59.10;;;;;;5093984;28;20059;-69
2021/05/21 08:21:25;;;;;;;1.00;0.50;;;15.90;59.00;;;;;;5094743;28;20094;-69
2021/05/21 08:23:51;;;;;;;1.15;0.80;;;15.90;58.70;;;;;;5097347;28;20051;-69
2021/05/21 08:26:17;;;;;;;2.40;0.40;;;15.90;58.00;;;;;;5098742;28;20063;-69
2021/05/21 08:28:43;;;;;;;1.88;0.40;;;15.90;58.10;;;;;;5098047;28;20481;-69
2021/05/21 08:31:11;;;;;;;0.70;0.20;;;16.00;58.00;;;;;;5117042;28;20019;-69
2021/05/21 08:33:43;;;;;;;0.80;0.40;;;16.00;58.00;;;;;;5098099;28;20035;-70
2021/05/21 08:36:13;;;;;;;5.68;0.65;;;16.10;58.40;;;;;;5098642;28;20031;-69
2021/05/21 08:38:44;;;;;;;1.08;0.65;;;16.20;57.60;;;;;;5097928;28;20028;-69
2021/05/21 08:41:17;;;;;;;1.10;0.30;;;16.20;57.20;;;;;;5098802;28;20031;-69
2021/05/21 08:43:46;;;;;;;0.80;0.50;;;16.20;57.10;;;;;;5098002;28;20032;-70
2021/05/21 08:46:13;;;;;;;1.55;0.40;;;16.20;57.50;;;;;;5098556;28;20039;-69
2021/05/21 08:48:40;;;;;;;1.38;0.40;;;16.20;57.70;;;;;;5097889;28;20032;-70
2021/05/21 08:51:06;;;;;;;2.05;0.43;;;16.20;57.60;;;;;;5098285;28;20036;-69
2021/05/21 08:53:32;;;;;;;2.22;0.60;;;16.20;57.40;;;;;;5098208;28;20028;-69
2021/05/21 08:55:59;;;;;;;0.77;0.35;;;16.30;57.10;;;;;;5097671;28;20029;-70
2021/05/21 08:58:25;;;;;;;1.35;0.65;;;16.20;56.90;;;;;;5116473;28;20069;-69
2021/05/21 09:00:50;;;;;;;1.33;0.28;;;16.30;56.50;;;;;;5097591;28;20464;-69
2021/05/21 09:03:28;;;;;;;0.93;0.40;;;16.40;56.60;;;;;;5116354;28;20521;-69
2021/05/21 09:06:22;;;;;;;0.57;0.40;;;16.50;56.80;;;;;;5115317;28;20109;-69
2021/05/21 09:08:49;;;;;;;1.60;0.40;;;16.50;56.10;;;;;;5112751;28;20039;-69
2021/05/21 09:11:36;;;;;;;3.88;0.43;;;16.60;56.30;;;;;;5098120;28;20030;-69
2021/05/21 09:14:06;;;;;;;0.93;0.43;;;16.60;56.50;;;;;;5097952;28;20028;-69
2021/05/21 09:16:34;;;;;;;0.82;0.30;;;16.60;56.50;;;;;;5098014;28;20031;-69
2021/05/21 09:19:03;;;;;;;0.75;0.22;;;16.60;56.70;;;;;;5115170;28;20028;-69
2021/05/21 09:21:50;;;;;;;1.48;0.32;;;16.50;56.40;;;;;;5116058;28;20030;-70
2021/05/21 09:24:19;;;;;;;1.85;0.47;;;16.50;56.70;;;;;;5097634;28;20399;-71
2021/05/21 09:26:46;;;;;;;0.85;0.38;;;16.40;56.80;;;;;;5096888;28;20073;-69
2021/05/21 09:29:15;;;;;;;0.65;0.60;;;16.40;56.90;;;;;;5097550;28;20384;-69
2021/05/21 09:31:45;;;;;;;4.53;0.50;;;16.30;57.00;;;;;;5096918;28;20052;-70
2021/05/21 09:34:12;;;;;;;1.17;0.30;;;16.30;56.80;;;;;;5115030;28;20107;-69
2021/05/21 09:36:41;;;;;;;4.78;0.50;;;16.30;56.80;;;;;;5115212;28;20123;-70
2021/05/21 09:39:10;;;;;;;0.93;0.50;;;16.40;57.00;;;;;;5115675;28;20077;-69
2021/05/21 09:41:57;;;;;;;1.45;0.32;;;16.50;56.60;;;;;;5097540;28;20024;-69
2021/05/21 09:44:24;;;;;;;1.88;0.40;;;16.40;56.90;;;;;;5115556;28;20038;-70
2021/05/21 09:46:51;;;;;;;1.17;0.40;;;16.40;57.00;;;;;;5114930;28;20028;-70
2021/05/21 09:49:37;;;;;;;3.65;0.60;;;16.40;56.40;;;;;;5115484;28;20032;-70
2021/05/21 09:52:14;;;;;;;3.30;0.50;;;16.50;57.00;;;;;;5096575;28;20128;-68
2021/05/21 09:54:56;;;;;;;0.75;0.30;;;16.60;56.40;;;;;;5114920;28;20041;-72
2021/05/21 09:57:36;;;;;;;0.85;0.40;;;16.60;56.60;;;;;;5115401;28;20027;-69
2021/05/21 10:00:09;;;;;;;2.67;0.57;;;16.60;56.30;;;;;;5096155;28;20032;-70
2021/05/21 10:02:35;;;;;;;4.07;0.63;;;16.70;56.60;;;;;;5115343;28;20160;-69
2021/05/21 10:05:04;;;;;;;2.10;0.50;;;16.70;57.40;;;;;;5096139;28;20028;-72
2021/05/21 10:07:30;;;;;;;1.95;0.50;;;16.80;56.80;;;;;;5115126;28;20036;-69
2021/05/21 10:09:56;;;;;;;2.45;0.40;;;16.80;56.40;;;;;;5114597;28;20028;-70
2021/05/21 10:12:22;;;;;;;0.93;0.40;;;16.70;56.70;;;;;;5096973;28;20028;-70
2021/05/21 10:14:51;;;;;;;1.48;0.80;;;16.80;57.30;;;;;;5114448;28;20368;-70
2021/05/21 10:17:23;;;;;;;1.77;0.50;;;16.80;56.80;;;;;;5096772;28;20027;-70
2021/05/21 10:19:51;;;;;;;2.58;0.57;;;16.80;56.80;;;;;;5095965;28;20077;-70
2021/05/21 10:22:32;;;;;;;1.40;0.50;;;16.90;56.70;;;;;;5096410;28;20494;-70
2021/05/21 10:25:14;;;;;;;2.58;0.40;;;17.10;56.90;;;;;;5096037;28;20026;-70
2021/05/21 10:27:43;;;;;;;0.60;0.40;;;17.00;56.60;;;;;;5096697;28;20039;-70
2021/05/21 10:30:10;;;;;;;1.08;0.60;;;17.00;57.00;;;;;;5114490;28;20020;-70
2021/05/21 10:32:36;;;;;;;2.22;0.40;;;17.00;57.10;;;;;;5096499;28;20024;-70
2021/05/21 10:35:20;;;;;;;1.33;0.52;;;17.10;57.30;;;;;;5113942;28;20456;-70
2021/05/21 10:37:47;;;;;;;1.13;0.32;;;17.10;56.70;;;;;;5095756;28;20126;-70
2021/05/21 10:40:21;;;;;;;2.03;0.60;;;17.10;57.40;;;;;;5096126;28;20062;-70
2021/05/21 10:42:48;;;;;;;1.13;0.47;;;17.10;57.70;;;;;;5095649;28;20055;-70
2021/05/21 10:45:23;;;;;;;1.95;0.60;;;16.90;57.90;;;;;;5096084;28;20024;-70
2021/05/21 10:47:59;;;;;;;1.65;0.50;;;16.90;58.30;;;;;;5094894;28;20035;-70
2021/05/21 10:50:36;;;;;;;0.88;0.47;;;16.90;58.70;;;;;;5095987;28;20031;-70
2021/05/21 10:53:04;;;;;;;0.70;0.40;;;17.00;58.40;;;;;;5095364;28;20165;-70
2021/05/21 10:55:51;;;;;;;1.23;0.50;;;17.00;58.60;;;;;;5095892;28;20138;-70
2021/05/21 10:58:43;;;;;;;2.60;0.40;;;16.80;59.00;;;;;;5114135;28;20024;-70
2021/05/21 11:01:15;;;;;;;;;;;16.90;59.50;;;;;;5096275;28;20024;-70
2021/05/21 11:03:56;;;;;;;0.73;0.40;;;16.90;59.60;;;;;;5095791;28;19952;-70
2021/05/21 11:06:22;;;;;;;1.00;0.28;;;16.90;59.30;;;;;;5095419;28;20084;-70
2021/05/21 11:08:48;;;;;;;2.65;0.35;;;16.80;59.70;;;;;;5113242;28;20076;-70
2021/05/21 11:11:15;;;;;;;1.30;0.70;;;16.80;60.40;;;;;;5113620;28;20380;-70
2021/05/21 11:13:42;;;;;;;1.73;0.70;;;16.90;60.90;;;;;;5113895;28;20031;-70
2021/05/21 11:16:12;;;;;;;1.35;0.38;;;17.00;61.80;;;;;;5094957;28;20030;-70
2021/05/21 11:18:47;;;;;;;2.95;0.40;;;16.90;62.30;;;;;;5095248;28;20042;-70
2021/05/21 11:21:17;;;;;;;1.58;0.30;;;16.90;62.40;;;;;;5114035;28;20028;-70
2021/05/21 11:23:46;;;;;;;3.00;0.47;;;16.80;62.80;;;;;;5113715;28;20019;-70
2021/05/21 11:26:15;;;;;;;6.90;0.50;;;16.90;62.80;;;;;;5113246;28;20031;-70
2021/05/21 11:28:49;;;;;;;1.85;0.32;;;17.00;63.10;;;;;;5095394;28;20026;-70
2021/05/21 11:31:22;;;;;;;1.00;0.43;;;17.10;62.40;;;;;;5113324;28;20430;-70
2021/05/21 11:33:48;;;;;;;1.58;0.40;;;17.20;62.30;;;;;;5094794;28;20035;-70
2021/05/21 11:36:15;;;;;;;0.45;0.20;;;17.20;62.10;;;;;;5094886;28;20586;-70
2021/05/21 11:38:41;;;;;;;0.57;0.50;;;17.20;62.50;;;;;;5095230;28;20023;-70
2021/05/21 11:41:08;;;;;;;1.60;0.45;;;17.20;62.80;;;;;;5094585;28;20031;-70
2021/05/21 11:43:45;;;;;;;2.95;0.40;;;17.20;62.30;;;;;;5095287;28;20027;-69
2021/05/21 11:46:14;;;;;;;0.77;0.47;;;17.20;62.90;;;;;;5113010;28;20486;-70
2021/05/21 11:48:42;;;;;;;0.88;0.50;;;17.20;62.30;;;;;;5094744;28;20030;-70
2021/05/21 11:51:14;;;;;;;1.75;0.40;;;17.30;62.80;;;;;;5094429;28;20081;-70
2021/05/21 11:53:53;;;;;;;1.05;0.40;;;17.40;62.30;;;;;;5113330;28;20015;-70
2021/05/21 11:56:32;;;;;;;0.50;0.40;;;17.20;62.30;;;;;;5095111;28;20373;-70
2021/05/21 11:59:02;;;;;;;0.95;0.40;;;17.10;63.10;;;;;;5094017;28;20030;-70
2021/05/21 12:01:29;;;;;;;0.57;0.30;;;17.10;63.30;;;;;;5094591;28;20029;-70
2021/05/21 12:03:55;;;;;;;1.77;0.57;;;17.10;63.40;;;;;;5112237;28;20051;-70
2021/05/21 12:06:21;;;;;;;0.47;0.40;;;17.10;63.70;;;;;;5112572;28;20052;-70
2021/05/21 12:08:48;;;;;;;2.17;0.38;;;17.00;63.90;;;;;;5112172;28;20048;-70
2021/05/21 12:11:15;;;;;;;1.20;0.20;;;17.00;64.00;;;;;;5094958;28;20027;-70
2021/05/21 12:13:42;;;;;;;1.50;0.40;;;16.90;65.10;;;;;;5094758;28;20024;-70
2021/05/21 12:16:19;;;;;;;1.58;0.47;;;16.80;66.10;;;;;;5093571;28;20032;-69
2021/05/21 12:18:48;;;;;;;1.83;0.52;;;16.50;68.40;;;;;;5094888;28;20055;-70
2021/05/21 12:21:28;;;;;;;0.68;0.30;;;16.50;70.80;;;;;;5094382;28;20024;-70
2021/05/21 12:23:56;;;;;;;0.38;0.28;;;16.50;70.40;;;;;;5094111;28;20028;-70
2021/05/21 12:26:24;;;;;;;1.00;0.63;;;16.60;70.40;;;;;;5094547;28;20444;-70
2021/05/21 12:28:53;;;;;;;0.77;0.40;;;16.70;69.60;;;;;;5094038;28;20027;-70
2021/05/21 12:31:24;;;;;;;1.75;0.40;;;16.80;69.80;;;;;;5112833;28;20024;-70
2021/05/21 12:33:51;;;;;;;1.95;0.50;;;16.90;68.90;;;;;;5112573;28;20052;-70
2021/05/21 12:36:17;;;;;;;0.63;0.40;;;16.80;68.80;;;;;;5094527;28;20415;-70
2021/05/21 12:38:56;;;;;;;0.75;0.50;;;16.70;70.40;;;;;;5112792;28;20038;-70
2021/05/21 12:41:36;;;;;;;0.93;0.30;;;16.60;70.10;;;;;;5112821;28;20027;-70
2021/05/21 12:44:16;;;;;;;0.45;0.40;;;16.60;70.00;;;;;;5112148;28;20044;-70
2021/05/21 12:46:50;;;;;;;0.40;0.40;;;16.80;68.80;;;;;;5112709;28;20129;-70
2021/05/21 12:49:30;;;;;;;1.88;0.43;;;16.90;69.30;;;;;;5112876;28;20027;-70
2021/05/21 12:51:58;;;;;;;1.15;0.40;;;17.00;68.00;;;;;;5112078;28;20024;-70